Time;durP1;ratioP1;P1;durP2;ratioP2;P2;SDS_P1;SDS_P2;PMS_P1;PMS_P2;Temp;Humidity;BMP_temperature;BMP_pressure;BME280_temperature;BME280_humidity;BME280_pressure;Samples;Min_cycle;Max_cycle;Signal;HPM_P1;HPM_P2
2022/03/24 00:00:21;;;;;;;;;;;;;;;3.64;42.01;100605.75;5003041;28;20183;-83
2022/03/24 00:02:46;;;;;;;;;;;;;;;3.72;42.05;100591.19;5005066;28;19928;-83
2022/03/24 00:05:12;;;;;;;;;;;;;;;3.82;42.28;100593.22;5032417;28;19921;-84
2022/03/24 00:07:38;;;;;;;;;;;;;;;4.05;41.96;100604.25;5004052;28;19933;-84
2022/03/24 00:10:04;;;;;;;;;;;;;;;3.56;42.69;100595.97;5000954;28;20307;-84
2022/03/24 00:12:29;;;;;;;;;;;;;;;3.83;42.41;100588.88;5005125;28;19917;-83
2022/03/24 00:14:55;;;;;;;;;;;;;;;3.71;43.54;100595.53;5037977;28;19928;-84
2022/03/24 00:17:20;;;;;;;;;;;;;;;3.53;43.53;100588.06;5006194;28;19922;-81
2022/03/24 00:19:46;;;;;;;;;;;;;;;3.08;44.22;100583.31;5004679;28;19926;-82
2022/03/24 00:22:11;;;;;;;;;;;;;;;2.83;44.83;100586.91;5006430;28;19925;-83
2022/03/24 00:24:37;;;;;;;;;;;;;;;2.74;45.58;100574.47;4998211;28;20000;-84
2022/03/24 00:27:03;;;;;;;;;;;;;;;2.89;45.46;100563.66;4999409;28;19976;-84
2022/03/24 00:29:28;;;;;;;;;;;;;;;2.88;45.72;100561.00;4999651;28;19976;-85
2022/03/24 00:31:53;;;;;;;;;;;;;;;2.86;45.72;100571.38;4999266;28;20028;-86
2022/03/24 00:34:19;;;;;;;;;;;;;;;2.96;45.40;100568.19;4999440;28;19926;-85
2022/03/24 00:36:45;;;;;;;;;;;;;;;2.93;45.70;100562.88;4999306;28;19924;-85
2022/03/24 00:39:10;;;;;;;;;;;;;;;3.16;44.64;100563.56;5002186;28;19925;-84
2022/03/24 00:41:35;;;;;;;;;;;;;;;3.04;44.96;100566.72;5002330;28;19928;-85
2022/03/24 00:44:02;;;;;;;;;;;;;;;2.88;44.96;100559.25;5000753;28;19922;-84
2022/03/24 00:46:28;;;;;;;;;;;;;;;2.51;45.67;100561.59;5004386;28;20350;-85
2022/03/24 00:48:53;;;;;;;;;;;;;;;2.39;45.67;100550.81;5003880;28;19926;-86
2022/03/24 00:51:19;;;;;;;;;;;;;;;2.72;45.69;100546.59;5003643;28;20172;-86
2022/03/24 00:53:45;;;;;;;;;;;;;;;2.79;45.56;100544.22;5000053;28;20386;-84
2022/03/24 00:56:10;;;;;;;;;;;;;;;2.30;46.06;100555.72;4987682;28;19992;-85
2022/03/24 00:58:36;;;;;;;;;;;;;;;2.05;46.40;100548.84;4992250;28;19932;-86
2022/03/24 01:01:04;;;;;;;;;;;;;;;2.34;46.28;100541.97;4990902;28;20008;-86
2022/03/24 01:03:29;;;;;;;;;;;;;;;2.52;46.25;100544.28;4999675;28;19925;-86
2022/03/24 01:05:55;;;;;;;;;;;;;;;2.58;46.45;100536.66;5001419;28;20680;-85
2022/03/24 01:08:22;;;;;;;;;;;;;;;2.18;46.31;100540.59;4999215;28;20016;-85
2022/03/24 01:10:48;;;;;;;;;;;;;;;2.04;46.71;100528.84;4988444;28;20044;-85
2022/03/24 01:13:13;;;;;;;;;;;;;;;1.85;47.88;100525.63;4986539;28;19925;-86
2022/03/24 01:15:45;;;;;;;;;;;;;;;2.08;47.37;100523.78;4994246;28;19945;-85
2022/03/24 01:18:10;;;;;;;;;;;;;;;1.87;47.41;100526.56;4990459;28;19928;-85
2022/03/24 01:20:36;;;;;;;;;;;;;;;1.55;48.09;100538.47;4999372;28;19925;-85
2022/03/24 01:23:01;;;;;;;;;;;;;;;1.68;48.28;100527.66;4999217;28;20419;-90
2022/03/24 01:25:29;;;;;;;;;;;;;;;1.80;48.55;100506.38;4996380;28;19925;-85
2022/03/24 01:27:56;;;;;;;;;;;;;;;1.51;49.56;100514.06;5012172;28;19994;-86
2022/03/24 01:30:21;;;;;;;;;;;;;;;1.34;50.58;100520.41;4980955;28;20057;-84
2022/03/24 01:32:46;;;;;;;;;;;;;;;1.27;50.26;100524.50;4996606;28;20793;-87
2022/03/24 01:35:12;;;;;;;;;;;;;;;1.45;49.92;100510.38;4996046;28;20465;-86
2022/03/24 01:37:38;;;;;;;;;;;;;;;1.66;49.58;100511.13;5000355;28;19929;-86
2022/03/24 01:40:04;;;;;;;;;;;;;;;1.77;49.40;100501.06;5003764;28;20567;-85
2022/03/24 01:42:34;;;;;;;;;;;;;;;1.87;49.33;100503.16;5008585;28;19917;-84
2022/03/24 01:44:59;;;;;;;;;;;;;;;1.88;49.46;100511.84;5006970;28;19975;-84
2022/03/24 01:47:25;;;;;;;;;;;;;;;1.81;49.27;100517.66;5008361;28;19926;-85
2022/03/24 01:49:50;;;;;;;;;;;;;;;1.62;49.84;100501.44;5008356;28;19925;-84
2022/03/24 01:52:18;;;;;;;;;;;;;;;1.74;49.80;100491.44;5008000;28;19917;-84
2022/03/24 01:54:44;;;;;;;;;;;;;;;1.67;50.05;100505.09;5008158;28;19918;-85
2022/03/24 01:57:10;;;;;;;;;;;;;;;1.10;50.79;100513.50;5007633;28;20404;-85
2022/03/24 01:59:37;;;;;;;;;;;;;;;0.94;50.75;100511.16;5008280;28;20427;-85
2022/03/24 02:02:03;;;;;;;;;;;;;;;1.41;49.83;100504.19;5008394;28;20012;-84
2022/03/24 02:04:30;;;;;;;;;;;;;;;1.62;49.95;100501.44;5008645;28;20447;-83
2022/03/24 02:06:55;;;;;;;;;;;;;;;1.62;49.76;100485.81;5007794;28;19932;-82
2022/03/24 02:09:21;;;;;;;;;;;;;;;1.66;49.48;100492.03;5023329;28;19926;-84
2022/03/24 02:11:46;;;;;;;;;;;;;;;1.44;49.66;100501.72;5007477;28;19932;-83
2022/03/24 02:14:11;;;;;;;;;;;;;;;1.67;50.01;100494.69;5007865;28;19929;-83
2022/03/24 02:16:38;;;;;;;;;;;;;;;1.64;50.05;100499.78;5007718;28;19944;-83
2022/03/24 02:19:23;;;;;;;;;;;;;;;1.71;50.21;100498.28;5007615;28;19917;-83
2022/03/24 02:21:52;;;;;;;;;;;;;;;1.50;50.44;100501.00;5007875;28;20012;-82
2022/03/24 02:24:19;;;;;;;;;;;;;;;1.36;51.39;100503.13;5006741;28;20379;-82
2022/03/24 02:26:45;;;;;;;;;;;;;;;1.55;51.12;100500.34;5007576;28;19930;-84
2022/03/24 02:29:11;;;;;;;;;;;;;;;1.34;51.12;100495.28;5008078;28;20016;-83
2022/03/24 02:31:38;;;;;;;;;;;;;;;1.37;51.79;100489.31;5007479;28;19926;-83
2022/03/24 02:36:49;;;;;;;;;;;;;;;1.18;51.86;100483.47;5007460;28;19928;-83
2022/03/24 02:39:14;;;;;;;;;;;;;;;1.41;51.67;100491.19;5007639;28;19921;-83
2022/03/24 02:41:53;;;;;;;;;;;;;;;1.43;51.63;100481.72;5007882;28;20383;-82
2022/03/24 02:44:19;;;;;;;;;;;;;;;1.57;51.90;100480.47;5007160;28;19926;-82
2022/03/24 02:46:47;;;;;;;;;;;;;;;1.63;51.43;100487.59;5006898;28;19974;-83
2022/03/24 02:49:12;;;;;;;;;;;;;;;1.56;51.25;100483.03;5006524;28;19929;-83
2022/03/24 02:51:38;;;;;;;;;;;;;;;1.67;50.94;100480.78;5006662;28;19926;-82
2022/03/24 02:54:06;;;;;;;;;;;;;;;1.60;51.25;100474.50;5007369;28;20346;-82
2022/03/24 02:56:31;;;;;;;;;;;;;;;1.64;51.55;100475.47;5006889;28;20446;-82
2022/03/24 02:58:57;;;;;;;;;;;;;;;1.57;51.60;100470.06;5007247;28;19926;-82
2022/03/24 03:01:25;;;;;;;;;;;;;;;1.46;51.93;100473.16;5007579;28;20374;-82
2022/03/24 03:03:52;;;;;;;;;;;;;;;1.58;52.17;100465.78;5018925;28;20020;-83
2022/03/24 03:06:18;;;;;;;;;;;;;;;1.63;52.25;100471.13;4999290;28;20400;-83
2022/03/24 03:08:44;;;;;;;;;;;;;;;1.71;51.85;100472.25;5007577;28;19925;-82
2022/03/24 03:11:09;;;;;;;;;;;;;;;1.56;50.64;100465.72;5005396;28;19976;-82
2022/03/24 03:13:35;;;;;;;;;;;;;;;1.23;51.50;100466.31;5007230;28;19956;-83
2022/03/24 03:16:00;;;;;;;;;;;;;;;0.99;52.66;100476.72;5007500;28;19921;-82
2022/03/24 03:18:25;;;;;;;;;;;;;;;0.99;53.99;100466.34;5006915;28;19925;-82
2022/03/24 03:20:51;;;;;;;;;;;;;;;0.95;54.62;100471.38;5006767;28;19926;-83
2022/03/24 03:23:18;;;;;;;;;;;;;;;1.10;54.17;100471.00;5006835;28;20011;-84
2022/03/24 03:25:43;;;;;;;;;;;;;;;0.96;53.28;100475.72;5006535;28;19928;-82
2022/03/24 03:28:08;;;;;;;;;;;;;;;0.71;52.07;100472.22;5007054;28;19921;-84
2022/03/24 03:30:34;;;;;;;;;;;;;;;0.50;53.20;100469.72;5006659;28;19932;-84
2022/03/24 03:33:00;;;;;;;;;;;;;;;0.70;53.43;100465.28;5006534;28;19936;-84
2022/03/24 03:35:27;;;;;;;;;;;;;;;0.45;54.41;100466.94;5005855;28;19925;-83
2022/03/24 03:37:54;;;;;;;;;;;;;;;0.38;54.93;100466.66;5020065;28;19921;-82
2022/03/24 03:40:19;;;;;;;;;;;;;;;0.29;54.99;100473.25;5009116;28;19932;-82
2022/03/24 03:42:45;;;;;;;;;;;;;;;0.37;55.19;100462.28;5009984;28;19926;-84
2022/03/24 03:45:10;;;;;;;;;;;;;;;0.33;55.90;100467.34;5011034;28;20036;-83
2022/03/24 03:47:35;;;;;;;;;;;;;;;0.58;55.49;100463.09;5006318;28;19932;-80
2022/03/24 03:50:01;;;;;;;;;;;;;;;0.67;54.85;100466.03;5010067;28;19940;-80
2022/03/24 03:52:26;;;;;;;;;;;;;;;0.64;54.84;100472.84;5010049;28;19932;-81
2022/03/24 03:54:52;;;;;;;;;;;;;;;0.67;54.90;100466.03;5009916;28;19922;-81
2022/03/24 03:57:17;;;;;;;;;;;;;;;0.70;54.69;100463.56;5009155;28;19925;-81
2022/03/24 03:59:42;;;;;;;;;;;;;;;0.32;55.80;100459.50;5010814;28;19929;-81
2022/03/24 04:02:08;;;;;;;;;;;;;;;0.30;56.70;100462.03;5009538;28;19921;-81
2022/03/24 04:04:33;;;;;;;;;;;;;;;0.40;56.34;100467.59;5008817;28;20019;-80
2022/03/24 04:06:58;;;;;;;;;;;;;;;0.41;56.51;100457.25;5008805;28;19925;-81
2022/03/24 04:09:23;;;;;;;;;;;;;;;0.45;56.21;100451.38;5009414;28;20116;-81
2022/03/24 04:11:49;;;;;;;;;;;;;;;0.31;56.62;100445.66;5008632;28;20311;-80
2022/03/24 04:14:14;;;;;;;;;;;;;;;0.47;56.24;100447.13;5009631;28;20451;-82
2022/03/24 04:16:40;;;;;;;;;;;;;;;0.49;56.17;100445.44;5009626;28;19921;-82
2022/03/24 04:19:07;;;;;;;;;;;;;;;0.65;55.87;100446.03;5008707;28;20446;-80
2022/03/24 04:21:33;;;;;;;;;;;;;;;0.61;56.09;100447.63;5010007;28;19944;-81
2022/03/24 04:23:58;;;;;;;;;;;;;;;0.65;56.13;100451.22;5008486;28;19922;-82
2022/03/24 04:26:23;;;;;;;;;;;;;;;0.71;55.71;100448.84;5008509;28;20008;-80
2022/03/24 04:28:49;;;;;;;;;;;;;;;0.79;56.13;100446.53;5041014;28;20497;-83
2022/03/24 04:31:14;;;;;;;;;;;;;;;0.86;56.00;100439.00;5024768;28;19968;-83
2022/03/24 04:33:39;;;;;;;;;;;;;;;0.93;55.78;100437.53;5008813;28;19925;-83
2022/03/24 04:36:08;;;;;;;;;;;;;;;1.10;55.81;100438.13;5010176;28;19932;-84
2022/03/24 04:38:33;;;;;;;;;;;;;;;1.25;55.28;100435.16;5009219;28;19931;-86
2022/03/24 04:40:59;;;;;;;;;;;;;;;1.36;54.89;100435.53;5009039;28;19925;-81
2022/03/24 04:43:25;;;;;;;;;;;;;;;1.28;54.68;100437.00;5010011;28;19913;-82
2022/03/24 04:45:50;;;;;;;;;;;;;;;1.30;54.66;100448.31;5025517;28;19980;-80
2022/03/24 04:48:15;;;;;;;;;;;;;;;1.23;54.13;100444.63;5011673;28;20403;-79
2022/03/24 04:50:41;;;;;;;;;;;;;;;1.11;55.26;100445.09;5009227;28;19925;-78
2022/03/24 04:53:06;;;;;;;;;;;;;;;1.27;54.92;100438.72;5040475;28;19925;-87
2022/03/24 04:55:31;;;;;;;;;;;;;;;0.93;54.92;100447.03;5005760;28;19970;-84
2022/03/24 04:57:57;;;;;;;;;;;;;;;0.93;55.65;100447.94;5030015;28;19925;-82
2022/03/24 05:00:22;;;;;;;;;;;;;;;0.88;56.18;100447.75;5009603;28;19960;-81
2022/03/24 05:02:48;;;;;;;;;;;;;;;1.00;56.68;100444.69;5009012;28;20338;-81
2022/03/24 05:05:15;;;;;;;;;;;;;;;1.19;56.66;100456.66;5023930;28;19976;-83
2022/03/24 05:07:41;;;;;;;;;;;;;;;1.37;55.64;100458.13;5033675;28;19925;-82
2022/03/24 05:10:06;;;;;;;;;;;;;;;1.37;56.15;100445.13;5028715;28;20343;-82
2022/03/24 05:12:32;;;;;;;;;;;;;;;1.34;57.06;100451.09;5009800;28;19925;-83
2022/03/24 05:14:57;;;;;;;;;;;;;;;1.48;57.10;100456.75;5009476;28;20374;-82
2022/03/24 05:17:23;;;;;;;;;;;;;;;1.66;56.86;100447.81;5018544;28;20751;-83
2022/03/24 05:19:48;;;;;;;;;;;;;;;1.85;56.17;100444.09;5029391;28;20430;-83
2022/03/24 05:22:14;;;;;;;;;;;;;;;1.97;56.22;100450.56;5009167;28;20296;-82
2022/03/24 05:24:41;;;;;;;;;;;;;;;1.96;56.23;100441.00;5007999;28;19953;-81
2022/03/24 05:27:07;;;;;;;;;;;;;;;2.23;56.09;100429.69;5008141;28;19959;-82
2022/03/24 05:29:32;;;;;;;;;;;;;;;2.48;55.45;100430.41;5008027;28;19925;-82
2022/03/24 05:31:57;;;;;;;;;;;;;;;2.76;55.41;100426.00;5023261;28;20839;-82
2022/03/24 05:34:23;;;;;;;;;;;;;;;2.92;55.38;100424.69;5007580;28;19921;-83
2022/03/24 05:36:48;;;;;;;;;;;;;;;3.11;55.06;100431.31;5010216;28;20335;-82
2022/03/24 05:39:14;;;;;;;;;;;;;;;3.37;54.73;100427.66;5009290;28;20706;-82
2022/03/24 05:41:41;;;;;;;;;;;;;;;3.47;54.09;100423.56;5007313;28;19991;-81
2022/03/24 05:44:07;;;;;;;;;;;;;;;3.76;53.15;100424.28;5037782;28;19952;-83
2022/03/24 05:46:33;;;;;;;;;;;;;;;3.78;53.40;100424.31;4990461;28;20008;-81
2022/03/24 05:48:59;;;;;;;;;;;;;;;4.01;52.87;100430.09;4989441;28;19922;-81
2022/03/24 05:51:25;;;;;;;;;;;;;;;4.30;51.17;100432.50;5020642;28;19973;-81
2022/03/24 05:53:50;;;;;;;;;;;;;;;4.65;50.48;100422.78;4989254;28;19960;-81
2022/03/24 05:56:16;;;;;;;;;;;;;;;4.75;50.86;100434.31;4995839;28;19925;-80
2022/03/24 05:58:42;;;;;;;;;;;;;;;5.12;49.86;100429.81;5007959;28;20335;-79
2022/03/24 06:01:09;;;;;;;;;;;;;;;5.32;49.01;100429.28;5008295;28;20016;-81
2022/03/24 06:03:35;;;;;;;;;;;;;;;5.57;47.57;100434.09;5007770;28;19975;-82
2022/03/24 06:06:01;;;;;;;;;;;;;;;5.74;46.74;100430.88;5007083;28;19929;-81
2022/03/24 06:08:26;;;;;;;;;;;;;;;6.15;44.61;100438.56;5007316;28;20012;-82
2022/03/24 06:10:52;;;;;;;;;;;;;;;6.17;44.27;100434.19;5007876;28;19929;-81
2022/03/24 06:13:17;;;;;;;;;;;;;;;6.33;44.07;100434.44;5022955;28;20144;-81
2022/03/24 06:15:43;;;;;;;;;;;;;;;6.14;44.88;100431.53;5039833;28;19922;-81
2022/03/24 06:18:08;;;;;;;;;;;;;;;6.49;44.19;100427.63;5007517;28;19949;-82
2022/03/24 06:20:33;;;;;;;;;;;;;;;7.01;43.32;100419.53;5007608;28;19952;-82
2022/03/24 06:22:59;;;;;;;;;;;;;;;7.13;43.38;100422.31;5007791;28;19932;-82
2022/03/24 06:25:24;;;;;;;;;;;;;;;7.39;43.56;100412.06;5006938;28;19925;-82
2022/03/24 06:27:50;;;;;;;;;;;;;;;7.70;43.29;100410.59;5007808;28;19960;-81
2022/03/24 06:30:15;;;;;;;;;;;;;;;8.24;41.97;100405.69;5008131;28;19918;-83
2022/03/24 06:32:40;;;;;;;;;;;;;;;8.45;41.05;100401.47;5007647;28;19921;-83
2022/03/24 06:35:08;;;;;;;;;;;;;;;8.85;40.88;100406.00;5006131;28;20349;-83
2022/03/24 06:37:39;;;;;;;;;;;;;;;9.33;40.05;100407.03;5007386;28;19980;-84
2022/03/24 06:40:06;;;;;;;;;;;;;;;9.74;38.34;100400.88;5010836;28;20016;-84
2022/03/24 06:42:31;;;;;;;;;;;;;;;9.94;40.23;100403.50;5007533;28;20016;-84
2022/03/24 06:44:57;;;;;;;;;;;;;;;10.21;37.75;100399.09;5007313;28;20060;-83
2022/03/24 06:47:22;;;;;;;;;;;;;;;10.44;39.15;100404.34;5006106;28;20360;-84
2022/03/24 06:49:47;;;;;;;;;;;;;;;10.77;36.87;100394.53;5006128;28;19925;-82
2022/03/24 06:52:12;;;;;;;;;;;;;;;10.82;38.58;100399.78;5006363;28;19926;-83
2022/03/24 06:54:38;;;;;;;;;;;;;;;11.50;35.96;100394.09;5006043;28;19991;-82
2022/03/24 06:57:03;;;;;;;;;;;;;;;11.69;35.41;100395.66;5006472;28;19932;-84
2022/03/24 06:59:28;;;;;;;;;;;;;;;12.17;35.31;100389.97;5023381;28;20055;-85
2022/03/24 07:01:54;;;;;;;;;;;;;;;11.98;35.13;100394.56;5007391;28;19960;-83
2022/03/24 07:04:19;;;;;;;;;;;;;;;11.91;36.77;100388.44;5007331;28;19913;-83
2022/03/24 07:06:44;;;;;;;;;;;;;;;12.31;35.15;100393.38;5007491;28;19921;-83
2022/03/24 07:09:10;;;;;;;;;;;;;;;12.23;35.51;100383.75;5007195;28;19933;-83
2022/03/24 07:11:35;;;;;;;;;;;;;;;12.37;35.11;100389.75;5010176;28;19941;-82
2022/03/24 07:14:01;;;;;;;;;;;;;;;12.45;35.40;100379.97;5010847;28;20335;-82
2022/03/24 07:16:26;;;;;;;;;;;;;;;12.92;35.90;100384.69;5011519;28;20011;-82
2022/03/24 07:18:52;;;;;;;;;;;;;;;13.16;34.81;100371.09;5043093;28;20028;-84
2022/03/24 07:21:17;;;;;;;;;;;;;;;13.56;32.90;100372.25;5011236;28;19922;-83
2022/03/24 07:23:43;;;;;;;;;;;;;;;13.85;32.11;100377.06;5011021;28;20017;-83
2022/03/24 07:26:09;;;;;;;;;;;;;;;13.84;29.93;100367.38;5011154;28;19987;-82
2022/03/24 07:28:35;;;;;;;;;;;;;;;13.97;30.87;100363.59;5011110;28;19921;-83
2022/03/24 07:31:07;;;;;;;;;;;;;;;14.12;30.03;100358.91;5011140;28;20323;-82
2022/03/24 07:33:33;;;;;;;;;;;;;;;14.33;30.06;100360.25;5042998;28;19918;-83
2022/03/24 07:35:58;;;;;;;;;;;;;;;14.09;28.89;100365.16;5011200;28;20296;-82
2022/03/24 07:38:23;;;;;;;;;;;;;;;14.45;29.13;100364.47;5010675;28;19918;-82
2022/03/24 07:40:48;;;;;;;;;;;;;;;14.72;29.14;100359.50;5011155;28;19928;-83
2022/03/24 07:43:14;;;;;;;;;;;;;;;14.81;28.75;100361.97;5010832;28;20031;-84
2022/03/24 07:45:39;;;;;;;;;;;;;;;14.89;28.56;100354.72;5010519;28;19917;-83
2022/03/24 07:48:07;;;;;;;;;;;;;;;14.87;28.36;100351.19;5010780;28;20319;-83
2022/03/24 07:50:33;;;;;;;;;;;;;;;15.03;27.84;100355.25;5010858;28;20003;-83
2022/03/24 07:53:25;;;;;;;;;;;;;;;15.18;28.04;100348.75;5010514;28;19932;-83
2022/03/24 07:55:50;;;;;;;;;;;;;;;15.16;26.87;100347.88;5009098;28;20008;-83
2022/03/24 07:58:17;;;;;;;;;;;;;;;14.95;27.58;100361.66;5009775;28;20016;-84
2022/03/24 08:00:43;;;;;;;;;;;;;;;15.43;28.85;100348.16;5009015;28;19983;-84
2022/03/24 08:03:13;;;;;;;;;;;;;;;15.80;26.81;100347.25;5010574;28;20308;-81
2022/03/24 08:05:38;;;;;;;;;;;;;;;16.09;26.86;100348.22;5041309;28;19945;-81
2022/03/24 08:08:04;;;;;;;;;;;;;;;15.76;26.25;100345.53;5041959;28;19925;-81
2022/03/24 08:10:29;;;;;;;;;;;;;;;15.97;26.50;100332.59;5009939;28;19925;-80
2022/03/24 08:12:55;;;;;;;;;;;;;;;16.07;26.46;100329.66;5009679;28;19922;-81
2022/03/24 08:15:20;;;;;;;;;;;;;;;15.91;26.61;100334.53;5009441;28;19926;-81
2022/03/24 08:17:45;;;;;;;;;;;;;;;16.16;27.01;100330.28;5010577;28;19957;-81
2022/03/24 08:20:11;;;;;;;;;;;;;;;16.26;26.83;100330.00;5009667;28;19982;-83
2022/03/24 08:22:36;;;;;;;;;;;;;;;16.47;27.64;100323.19;5009190;28;20323;-82
2022/03/24 08:25:02;;;;;;;;;;;;;;;16.56;26.25;100323.81;5008976;28;19944;-83
2022/03/24 08:27:28;;;;;;;;;;;;;;;16.97;25.69;100317.25;5009619;28;19941;-82
2022/03/24 08:29:53;;;;;;;;;;;;;;;16.67;25.84;100318.16;5009530;28;19929;-83
2022/03/24 08:32:18;;;;;;;;;;;;;;;16.96;25.11;100309.31;5009247;28;19921;-85
2022/03/24 08:34:44;;;;;;;;;;;;;;;16.80;26.49;100309.75;5009306;28;19921;-85
2022/03/24 08:37:09;;;;;;;;;;;;;;;16.80;25.36;100299.09;5009564;28;20300;-84
2022/03/24 08:39:34;;;;;;;;;;;;;;;17.20;27.12;100297.00;5009323;28;19922;-84
2022/03/24 08:42:00;;;;;;;;;;;;;;;17.22;25.71;100299.63;5009604;28;20319;-85
2022/03/24 08:44:25;;;;;;;;;;;;;;;17.51;26.44;100295.97;5009221;28;19925;-84
2022/03/24 08:46:51;;;;;;;;;;;;;;;17.84;25.04;100301.06;5009775;28;20429;-84
2022/03/24 08:49:18;;;;;;;;;;;;;;;17.65;25.22;100296.38;5009180;28;20679;-84
2022/03/24 08:51:44;;;;;;;;;;;;;;;17.94;26.26;100293.66;5008365;28;19921;-85
2022/03/24 08:54:09;;;;;;;;;;;;;;;18.24;25.30;100296.97;5009448;28;19933;-85
2022/03/24 08:56:35;;;;;;;;;;;;;;;17.78;23.66;100293.25;5008813;28;20322;-84
2022/03/24 08:59:00;;;;;;;;;;;;;;;17.46;23.80;100284.59;5008924;28;19925;-84
2022/03/24 09:01:26;;;;;;;;;;;;;;;17.35;23.81;100291.16;5009515;28;19921;-85
2022/03/24 09:03:52;;;;;;;;;;;;;;;17.57;24.22;100290.44;5009238;28;19925;-84
2022/03/24 09:06:19;;;;;;;;;;;;;;;17.88;24.64;100273.34;5008495;28;20339;-85
2022/03/24 09:08:44;;;;;;;;;;;;;;;17.62;22.24;100295.59;5009059;28;20408;-84
2022/03/24 09:11:09;;;;;;;;;;;;;;;17.61;22.82;100283.19;5008712;28;19945;-84
2022/03/24 09:13:38;;;;;;;;;;;;;;;17.89;22.33;100277.78;5009017;28;20012;-85
2022/03/24 09:16:04;;;;;;;;;;;;;;;18.16;22.04;100269.69;5009311;28;19972;-84
2022/03/24 09:18:29;;;;;;;;;;;;;;;18.33;22.89;100269.91;5008922;28;20392;-84
2022/03/24 09:20:55;;;;;;;;;;;;;;;18.34;23.07;100265.47;5008722;28;19922;-84
2022/03/24 09:23:22;;;;;;;;;;;;;;;18.02;20.99;100259.53;5008669;28;19925;-84
2022/03/24 09:25:47;;;;;;;;;;;;;;;18.32;22.45;100261.97;5008534;28;19926;-84
2022/03/24 09:28:13;;;;;;;;;;;;;;;18.47;22.42;100255.19;5008753;28;19922;-83
2022/03/24 09:30:40;;;;;;;;;;;;;;;18.86;21.72;100257.22;5040567;28;19917;-85
2022/03/24 09:33:06;;;;;;;;;;;;;;;19.03;21.27;100254.75;5008650;28;20447;-84
2022/03/24 09:35:31;;;;;;;;;;;;;;;18.67;20.05;100257.94;5008434;28;20016;-85
2022/03/24 09:37:57;;;;;;;;;;;;;;;18.54;21.78;100251.34;5008744;28;20378;-84
2022/03/24 09:40:22;;;;;;;;;;;;;;;18.85;22.47;100250.16;5008065;28;20008;-82
2022/03/24 09:42:47;;;;;;;;;;;;;;;18.66;22.05;100239.28;5008460;28;19960;-82
2022/03/24 09:45:13;;;;;;;;;;;;;;;18.53;21.17;100247.78;5040321;28;19921;-83
2022/03/24 09:47:39;;;;;;;;;;;;;;;18.55;21.40;100243.28;5008566;28;19921;-83
2022/03/24 09:50:05;;;;;;;;;;;;;;;18.93;22.18;100234.66;5008806;28;19972;-83
2022/03/24 09:52:30;;;;;;;;;;;;;;;18.84;22.37;100235.00;5023664;28;20293;-83
2022/03/24 09:54:56;;;;;;;;;;;;;;;18.88;21.86;100226.84;5008215;28;19944;-83
2022/03/24 09:57:21;;;;;;;;;;;;;;;18.85;22.61;100223.44;5008199;28;19925;-83
2022/03/24 09:59:47;;;;;;;;;;;;;;;19.10;21.68;100215.25;5008508;28;19917;-83
2022/03/24 10:02:12;;;;;;;;;;;;;;;19.03;21.14;100225.34;5008516;28;20032;-85
2022/03/24 10:04:48;;;;;;;;;;;;;;;19.25;21.01;100211.94;5008203;28;19918;-84
2022/03/24 10:07:14;;;;;;;;;;;;;;;19.21;22.30;100220.16;5007985;28;19996;-83
2022/03/24 10:09:40;;;;;;;;;;;;;;;19.20;21.41;100208.59;5007650;28;19921;-83
2022/03/24 10:12:06;;;;;;;;;;;;;;;19.17;20.85;100203.38;5007465;28;19921;-83
2022/03/24 10:14:32;;;;;;;;;;;;;;;19.53;21.27;100193.81;5007223;28;19932;-82
2022/03/24 10:17:08;;;;;;;;;;;;;;;19.92;21.75;100190.31;5007897;28;19921;-83
2022/03/24 10:19:34;;;;;;;;;;;;;;;19.74;21.50;100179.50;5006759;28;19921;-84
2022/03/24 10:22:05;;;;;;;;;;;;;;;19.43;20.62;100178.19;5008350;28;19932;-83
2022/03/24 10:24:31;;;;;;;;;;;;;;;18.95;21.63;100176.66;5008008;28;20442;-85
2022/03/24 10:27:00;;;;;;;;;;;;;;;19.22;21.73;100179.97;5007680;28;19929;-83
2022/03/24 10:29:26;;;;;;;;;;;;;;;19.42;21.08;100181.78;5007981;28;19917;-84
2022/03/24 10:31:53;;;;;;;;;;;;;;;19.45;19.35;100172.75;5039458;28;19929;-84
2022/03/24 10:34:28;;;;;;;;;;;;;;;19.54;21.03;100177.72;5008024;28;19987;-85
2022/03/24 10:36:53;;;;;;;;;;;;;;;19.16;19.79;100171.34;5008110;28;19922;-85
2022/03/24 10:39:23;;;;;;;;;;;;;;;19.36;20.56;100165.16;5039392;28;19918;-83
2022/03/24 10:41:49;;;;;;;;;;;;;;;19.30;21.08;100158.25;5007837;28;19921;-83
2022/03/24 10:44:14;;;;;;;;;;;;;;;19.46;20.24;100158.44;5007757;28;19918;-83
2022/03/24 10:46:43;;;;;;;;;;;;;;;19.60;19.87;100149.78;5007179;28;19921;-83
2022/03/24 10:49:17;;;;;;;;;;;;;;;19.79;20.75;100142.69;5008137;28;19928;-84
2022/03/24 10:51:43;;;;;;;;;;;;;;;19.62;20.44;100146.09;5007176;28;19929;-83
2022/03/24 10:54:22;;;;;;;;;;;;;;;19.30;20.02;100161.78;5007334;28;19922;-84
2022/03/24 10:56:47;;;;;;;;;;;;;;;19.13;19.64;100149.16;5007442;28;20725;-82
2022/03/24 10:59:12;;;;;;;;;;;;;;;19.38;20.06;100145.41;5007202;28;19917;-84
2022/03/24 11:01:38;;;;;;;;;;;;;;;19.55;21.35;100141.09;5007961;28;20339;-83
2022/03/24 11:04:03;;;;;;;;;;;;;;;19.70;20.90;100129.72;5007567;28;20392;-83
2022/03/24 11:06:29;;;;;;;;;;;;;;;19.86;19.93;100132.56;5007410;28;19921;-85
2022/03/24 11:08:59;;;;;;;;;;;;;;;20.08;20.76;100123.53;5039467;28;20320;-83
2022/03/24 11:11:25;;;;;;;;;;;;;;;20.03;19.56;100116.59;5007049;28;19917;-84
2022/03/24 11:13:51;;;;;;;;;;;;;;;20.12;19.67;100119.78;5007533;28;19924;-84
2022/03/24 11:16:20;;;;;;;;;;;;;;;19.64;18.60;100111.25;5007786;28;19964;-83
2022/03/24 11:18:46;;;;;;;;;;;;;;;20.02;20.27;100108.63;5007229;28;19922;-83
2022/03/24 11:21:13;;;;;;;;;;;;;;;20.03;20.15;100115.72;5006641;28;20395;-84
2022/03/24 11:23:41;;;;;;;;;;;;;;;20.01;19.04;100093.50;5007577;28;19917;-84
2022/03/24 11:26:08;;;;;;;;;;;;;;;20.00;19.19;100089.09;5005946;28;19956;-83
2022/03/24 11:28:36;;;;;;;;;;;;;;;20.37;19.04;100082.81;5007455;28;20719;-84
2022/03/24 11:31:03;;;;;;;;;;;;;;;20.13;18.86;100079.53;5007046;28;19964;-83
2022/03/24 11:33:29;;;;;;;;;;;;;;;20.07;19.26;100081.63;5007123;28;19921;-83
2022/03/24 11:35:56;;;;;;;;;;;;;;;19.85;18.59;100080.00;5006101;28;20323;-85
2022/03/24 11:38:21;;;;;;;;;;;;;;;19.85;18.67;100061.25;5007113;28;19917;-84
2022/03/24 11:40:47;;;;;;;;;;;;;;;20.40;18.75;100076.41;5007302;28;19922;-84
2022/03/24 11:43:17;;;;;;;;;;;;;;;20.43;18.16;100084.31;5007718;28;19917;-84
2022/03/24 11:45:45;;;;;;;;;;;;;;;20.49;18.70;100067.06;5007011;28;20459;-86
2022/03/24 11:48:12;;;;;;;;;;;;;;;20.61;18.03;100066.44;5006910;28;19928;-83
2022/03/24 11:50:38;;;;;;;;;;;;;;;20.29;18.16;100062.72;5006988;28;19918;-84
2022/03/24 11:53:10;;;;;;;;;;;;;;;20.57;17.98;100062.19;5006137;28;20414;-85
2022/03/24 11:55:37;;;;;;;;;;;;;;;20.68;17.80;100064.34;5038883;28;19922;-84
2022/03/24 11:58:03;;;;;;;;;;;;;;;20.61;17.28;100050.38;5008074;28;19921;-84
2022/03/24 12:00:31;;;;;;;;;;;;;;;20.62;16.99;100043.19;5042657;28;20411;-84
2022/03/24 12:03:01;;;;;;;;;;;;;;;20.69;17.25;100041.97;5010364;28;19975;-83
2022/03/24 12:05:53;;;;;;;;;;;;;;;20.30;16.94;100053.72;5009283;28;19926;-84
2022/03/24 12:08:28;;;;;;;;;;;;;;;20.53;16.46;100045.41;5011482;28;19921;-83
2022/03/24 12:10:54;;;;;;;;;;;;;;;20.78;16.46;100038.81;5010145;28;19922;-83
2022/03/24 12:13:21;;;;;;;;;;;;;;;20.92;15.42;100030.06;5010247;28;19927;-83
2022/03/24 12:16:05;;;;;;;;;;;;;;;20.91;15.33;100030.97;5009030;28;20024;-84
2022/03/24 12:18:40;;;;;;;;;;;;;;;20.95;15.25;100026.34;5009522;28;20048;-83
2022/03/24 12:21:06;;;;;;;;;;;;;;;21.08;15.95;100028.28;5009739;28;19932;-83
2022/03/24 12:23:50;;;;;;;;;;;;;;;20.97;14.21;100024.44;5010075;28;19925;-83
2022/03/24 12:26:16;;;;;;;;;;;;;;;21.03;14.90;100011.56;5009910;28;20319;-83
2022/03/24 12:28:43;;;;;;;;;;;;;;;21.04;15.38;100031.22;5009968;28;20023;-83
2022/03/24 12:31:08;;;;;;;;;;;;;;;20.86;15.18;100015.13;5010247;28;19921;-83
2022/03/24 12:33:36;;;;;;;;;;;;;;;20.99;14.90;100010.03;5041637;28;19917;-83
2022/03/24 12:36:02;;;;;;;;;;;;;;;21.13;14.52;100006.56;5010081;28;20412;-84
2022/03/24 12:38:34;;;;;;;;;;;;;;;21.10;14.70;100012.97;5009796;28;19926;-85
2022/03/24 12:41:02;;;;;;;;;;;;;;;21.24;15.18;100011.34;5009734;28;19933;-84